createdAt,value
2018-08-13T06:10:44.062Z,922.63
2018-08-13T06:13:26.420Z,126.20
2018-08-13T06:16:07.599Z,275.73
2018-08-13T06:18:49.270Z,77.13
2018-08-13T06:24:58.361Z,139.50
2018-08-13T06:27:52.538Z,387.53
2018-08-13T06:30:52.043Z,213.50
2018-08-13T06:33:39.762Z,376.47
2018-08-13T06:36:22.459Z,272.47
2018-08-13T06:39:05.041Z,487.90
2018-08-13T06:41:45.924Z,1330.27
2018-08-13T06:44:28.997Z,1270.87
2018-08-13T06:47:09.472Z,1154.60
2018-08-13T06:49:56.028Z,1046.27
2018-08-13T06:52:37.063Z,1999.90
2018-08-13T06:55:19.339Z,1999.90
2018-08-13T06:58:00.561Z,1999.90
2018-08-13T07:05:00.306Z,1931.13
2018-08-13T07:08:39.704Z,1570.70
2018-08-13T07:11:30.443Z,1521.33
2018-08-13T07:14:11.463Z,1683.83
2018-08-13T07:17:01.681Z,1819.70
2018-08-13T07:19:43.960Z,1896.30
2018-08-13T07:22:27.588Z,1999.90
2018-08-13T07:25:18.642Z,1457.13
2018-08-13T07:28:04.296Z,1329.50
2018-08-13T07:30:42.943Z,1184.40
2018-08-13T07:33:37.534Z,893.00
2018-08-13T07:36:19.201Z,390.27
2018-08-13T07:38:57.618Z,705.57
2018-08-13T07:41:35.816Z,1303.80
2018-08-13T07:44:17.026Z,1183.68
2018-08-13T07:47:30.084Z,1429.78
2018-08-13T07:50:18.661Z,1345.67
2018-08-13T07:53:00.580Z,1397.03
2018-08-13T07:55:44.237Z,1298.65
2018-08-13T07:58:22.219Z,1236.22
2018-08-13T08:01:33.404Z,1194.97
2018-08-13T08:04:31.218Z,795.67
2018-08-13T08:07:33.066Z,201.05
2018-08-13T08:10:39.080Z,17.10
2018-08-13T08:13:17.000Z,53.78
2018-08-13T08:15:55.316Z,75.60
2018-08-13T08:18:34.839Z,214.05
2018-08-13T08:21:17.511Z,54.80
2018-08-13T08:24:01.241Z,38.92
2018-08-13T08:26:54.678Z,32.15
2018-08-13T08:29:37.582Z,46.05
2018-08-13T08:32:19.703Z,46.35
2018-08-13T08:34:59.719Z,24.23
2018-08-13T08:37:39.423Z,18.98
2018-08-13T08:40:23.556Z,19.15
2018-08-13T08:43:07.980Z,19.45
2018-08-13T08:45:48.075Z,39.03
2018-08-13T08:48:29.821Z,58.40
2018-08-13T08:51:13.001Z,82.50
2018-08-13T08:53:56.526Z,20.32
2018-08-13T08:56:39.981Z,56.20
2018-08-13T08:59:22.370Z,29.75
2018-08-13T09:02:02.338Z,17.15
2018-08-13T09:04:43.580Z,17.95
2018-08-13T09:07:25.922Z,16.73
2018-08-13T09:10:06.124Z,17.23
2018-08-13T09:12:46.720Z,21.23
2018-08-13T09:15:28.482Z,23.05
2018-08-13T09:18:21.686Z,381.38
2018-08-13T09:21:16.142Z,63.35
2018-08-13T09:25:10.744Z,17.50
2018-08-13T09:28:03.442Z,25.40
2018-08-13T09:30:54.243Z,33.45
2018-08-13T09:33:45.836Z,47.50
2018-08-13T09:36:30.585Z,135.40
2018-08-13T09:39:12.556Z,188.68
2018-08-13T09:41:51.704Z,246.05
2018-08-13T09:44:32.239Z,450.90
2018-08-13T09:47:15.752Z,571.45
2018-08-13T09:49:57.338Z,736.15
2018-08-13T09:52:39.347Z,720.55
2018-08-13T09:55:23.042Z,417.98
2018-08-13T09:58:05.419Z,318.25
2018-08-13T10:00:51.601Z,653.65
2018-08-13T10:03:33.949Z,541.05
2018-08-13T10:06:16.161Z,490.32
2018-08-13T10:08:59.545Z,599.92
2018-08-13T10:11:39.638Z,185.00
2018-08-13T10:14:21.499Z,558.83
2018-08-13T10:17:08.581Z,546.50
2018-08-13T10:19:52.485Z,526.15
2018-08-13T10:22:39.582Z,523.10
2018-08-13T10:25:22.164Z,638.25
2018-08-13T10:28:05.201Z,445.15
2018-08-13T10:30:44.800Z,601.30
2018-08-13T10:33:32.787Z,364.10
2018-08-13T10:36:14.263Z,538.50
2018-08-13T10:38:53.097Z,755.95
2018-08-13T10:41:36.180Z,295.85
2018-08-13T10:44:19.466Z,583.98
2018-08-13T10:47:03.801Z,386.45
2018-08-13T10:49:44.191Z,577.92
2018-08-13T10:52:25.022Z,639.30
2018-08-13T10:55:05.141Z,632.65
2018-08-13T10:57:43.702Z,449.35
2018-08-13T11:00:32.943Z,179.20
2018-08-13T11:03:16.184Z,41.13
2018-08-13T11:05:55.759Z,39.48
2018-08-13T11:08:34.619Z,59.27
2018-08-13T11:11:13.022Z,47.53
2018-08-13T11:13:56.444Z,78.22
2018-08-13T11:16:35.202Z,31.62
2018-08-13T11:54:48.041Z,22.98
2018-08-13T11:57:36.419Z,20.08
2018-08-13T12:00:22.541Z,21.27
2018-08-13T12:03:05.682Z,23.85
2018-08-13T12:05:46.141Z,24.30
2018-08-13T12:08:27.182Z,26.93
2018-08-13T12:11:07.421Z,23.15
2018-08-13T12:13:47.641Z,17.55
2018-08-13T12:16:31.600Z,19.90
2018-08-13T12:19:13.881Z,58.02
2018-08-13T12:21:55.306Z,44.15
2018-08-13T12:24:36.461Z,35.88
2018-08-13T12:27:18.546Z,30.50
2018-08-13T12:29:57.135Z,20.57
2018-08-13T12:32:38.819Z,17.62
2018-08-13T12:35:18.721Z,18.73
2018-08-13T12:38:01.484Z,19.80
2018-08-13T12:40:46.699Z,46.15
2018-08-13T12:43:29.219Z,92.50
2018-08-13T12:46:08.417Z,81.30
2018-08-13T12:48:52.525Z,60.50
2018-08-13T12:51:35.239Z,99.30
2018-08-13T12:54:16.184Z,87.57
2018-08-13T12:57:01.922Z,100.53
2018-08-13T12:59:42.587Z,135.25
2018-08-13T13:02:25.483Z,215.05
2018-08-13T13:05:07.859Z,214.93
2018-08-13T13:07:50.281Z,180.55
2018-08-13T13:10:39.958Z,443.82
2018-08-13T13:13:22.821Z,932.35
2018-08-13T13:16:08.531Z,1144.68
2018-08-13T13:18:51.584Z,1135.10
2018-08-13T13:21:33.103Z,1077.88
2018-08-13T13:24:16.803Z,1046.95
2018-08-13T13:26:59.777Z,1154.68
2018-08-13T13:29:40.183Z,1121.53
2018-08-13T13:32:27.224Z,1184.08
2018-08-13T13:35:10.626Z,1105.70
2018-08-13T13:37:49.518Z,832.85
2018-08-13T13:40:28.132Z,1211.90
2018-08-13T13:43:07.303Z,1152.35
2018-08-13T13:45:45.962Z,1086.85
2018-08-13T13:48:24.519Z,1135.65
2018-08-13T13:51:02.683Z,1084.68
2018-08-13T13:53:43.922Z,1104.88
2018-08-13T13:56:22.966Z,1123.20
2018-08-13T13:59:02.474Z,1036.50
2018-08-13T14:01:43.506Z,1031.88
2018-08-13T14:04:22.322Z,1042.70
2018-08-13T14:07:01.257Z,1063.65
2018-08-13T14:09:45.565Z,1044.08
2018-08-13T14:12:24.981Z,1123.18
2018-08-13T14:15:07.927Z,1136.20
2018-08-13T14:17:50.646Z,1049.15
2018-08-13T14:20:28.999Z,924.90
2018-08-13T14:23:08.295Z,202.60
2018-08-13T14:25:47.498Z,1215.88
2018-08-13T14:28:27.497Z,634.00
2018-08-13T14:31:12.283Z,979.95
2018-08-13T14:33:51.974Z,973.98
2018-08-13T14:36:32.533Z,1000.05
2018-08-13T14:39:17.296Z,1161.87
2018-08-13T14:42:01.918Z,644.67
2018-08-13T14:44:45.135Z,743.17
2018-08-13T14:47:27.503Z,493.73
2018-08-13T14:50:09.825Z,564.63
2018-08-13T14:52:53.081Z,1085.18
2018-08-13T14:55:37.779Z,1122.68
2018-08-13T14:58:23.682Z,789.58
2018-08-13T15:01:06.238Z,561.73
2018-08-13T15:03:47.381Z,1262.45
2018-08-13T15:06:28.318Z,649.77
2018-08-13T15:09:15.599Z,482.85
2018-08-13T15:15:15.169Z,916.70
2018-08-13T15:17:59.899Z,703.23
2018-08-13T15:20:45.022Z,905.63
2018-08-13T15:23:24.676Z,685.90
2018-08-13T15:26:29.100Z,1114.83
2018-08-13T15:29:08.237Z,1040.93
2018-08-13T15:32:11.603Z,1102.60
2018-08-13T15:35:00.060Z,1065.97
2018-08-13T15:37:39.398Z,1060.55
2018-08-13T15:40:27.057Z,1040.83
2018-08-13T15:43:07.203Z,712.17
2018-08-13T15:45:49.163Z,995.25
2018-08-13T15:48:29.868Z,1201.45
2018-08-13T15:51:13.619Z,1198.93
2018-08-13T15:53:55.182Z,1209.80
2018-08-13T15:56:39.399Z,1156.50
2018-08-13T15:59:19.965Z,1241.93
2018-08-13T16:01:59.841Z,1168.17
2018-08-13T16:04:44.725Z,947.70
2018-08-13T16:07:23.061Z,1379.48
2018-08-13T16:10:05.282Z,1493.63
2018-08-13T16:12:45.504Z,1264.60
2018-08-13T16:15:25.375Z,1377.13
2018-08-13T16:18:04.663Z,1407.57
2018-08-13T16:20:47.175Z,1237.50
2018-08-13T16:23:32.161Z,1252.63
2018-08-13T16:26:14.865Z,1332.87
2018-08-13T16:28:56.398Z,1319.40
2018-08-13T16:31:36.616Z,1339.13
2018-08-13T16:34:15.121Z,1372.83
2018-08-13T16:36:55.640Z,1197.33
2018-08-13T16:39:39.177Z,1278.13
2018-08-13T16:48:19.842Z,1171.23
2018-08-13T16:50:54.148Z,1197.15
2018-08-13T16:53:34.497Z,1191.43
2018-08-13T16:56:15.845Z,1216.78
2018-08-13T16:58:56.338Z,900.98
2018-08-13T17:01:37.504Z,1381.22
2018-08-13T17:04:19.437Z,1369.85
2018-08-13T17:07:01.940Z,1398.63
2018-08-13T17:09:47.264Z,1427.90
2018-08-13T17:12:29.463Z,1413.78
2018-08-13T17:15:13.102Z,1169.33
2018-08-13T17:18:00.887Z,1252.93
2018-08-13T17:20:45.983Z,1271.78
2018-08-13T17:23:27.879Z,1352.73
2018-08-13T17:26:10.208Z,1407.50
2018-08-13T17:28:52.882Z,1394.87
2018-08-13T18:49:03.116Z,711.50
2018-08-13T18:51:47.060Z,807.63
2018-08-13T18:54:29.507Z,733.97
2018-08-13T18:57:09.862Z,688.37
2018-08-13T18:59:50.369Z,659.03
2018-08-13T19:02:30.239Z,699.77
2018-08-13T19:05:10.844Z,655.00
2018-08-13T19:07:53.882Z,566.23
2018-08-13T19:10:35.521Z,692.57
2018-08-13T19:13:18.497Z,708.10
2018-08-13T19:16:04.720Z,466.00
2018-08-13T19:18:48.083Z,528.13
2018-08-13T19:21:31.337Z,387.20
2018-08-13T19:24:13.641Z,493.03
2018-08-13T19:26:53.000Z,318.43
2018-08-13T19:29:31.967Z,691.13
2018-08-13T20:04:50.895Z,914.30
2018-08-13T20:07:31.626Z,649.10
2018-08-13T20:10:17.219Z,611.90
2018-08-13T20:12:57.501Z,435.57
2018-08-13T20:15:40.842Z,619.97
2018-08-13T20:18:23.383Z,737.60
2018-08-13T20:21:05.017Z,504.20
2018-08-13T20:23:50.759Z,756.27
2018-08-13T20:26:32.747Z,768.73
2018-08-13T20:29:14.403Z,469.43
2018-08-13T20:31:52.900Z,529.83
2018-08-13T20:34:31.721Z,596.13
2018-08-13T20:37:13.802Z,910.27
2018-08-13T20:39:56.388Z,968.97
2018-08-13T20:42:39.844Z,925.20
2018-08-13T20:45:25.806Z,879.93
2018-08-13T20:48:09.580Z,743.63
2018-08-13T20:50:51.898Z,687.97
2018-08-13T20:53:32.019Z,591.90
2018-08-13T20:56:13.958Z,657.63
2018-08-13T20:59:01.042Z,691.63
2018-08-13T21:01:40.804Z,684.27
2018-08-13T21:04:18.556Z,541.67
2018-08-13T21:07:00.324Z,616.50
2018-08-13T21:09:42.185Z,586.90
2018-08-13T21:12:24.676Z,698.03
2018-08-13T21:15:10.304Z,522.33
2018-08-13T21:17:52.739Z,440.67
2018-08-13T21:20:33.478Z,771.93
2018-08-13T21:23:15.854Z,591.17
2018-08-13T21:25:55.262Z,610.57
2018-08-13T21:28:43.259Z,606.50
2018-08-13T21:31:25.090Z,970.10
2018-08-13T21:34:07.601Z,793.03
2018-08-13T21:36:46.278Z,940.90
2018-08-13T21:39:30.197Z,925.97
2018-08-13T21:42:14.325Z,883.13
2018-08-13T21:44:57.438Z,707.33
2018-08-13T21:47:38.637Z,869.17
2018-08-13T21:50:24.321Z,991.20
2018-08-13T21:53:03.843Z,1005.63
2018-08-13T21:55:47.561Z,489.57
2018-08-13T21:58:29.340Z,859.33
2018-08-13T22:01:13.801Z,864.47
2018-08-13T22:03:55.439Z,1043.63
2018-08-13T22:06:41.543Z,789.70
2018-08-13T22:09:23.263Z,891.57
2018-08-13T22:12:04.456Z,749.93
2018-08-13T22:14:46.064Z,738.27
2018-08-13T22:17:26.582Z,593.07
2018-08-13T22:20:09.795Z,461.90
2018-08-13T22:22:52.901Z,368.20
2018-08-13T22:25:51.619Z,388.17
2018-08-13T22:28:33.499Z,486.20
2018-08-13T22:31:17.537Z,634.50
2018-08-13T22:33:59.536Z,605.00
2018-08-13T22:36:39.380Z,797.30
2018-08-13T22:39:19.982Z,626.33
2018-08-13T22:42:02.996Z,710.47
2018-08-13T22:44:43.798Z,757.30
2018-08-13T22:47:24.103Z,646.33
2018-08-13T22:50:06.436Z,621.90
2018-08-13T22:52:48.559Z,474.70
2018-08-13T22:55:29.401Z,630.67
2018-08-13T22:58:13.098Z,548.60
2018-08-13T23:00:54.186Z,514.77
2018-08-13T23:03:35.234Z,456.23
2018-08-13T23:06:15.694Z,469.10
2018-08-13T23:08:54.839Z,346.13
2018-08-13T23:11:37.382Z,506.73
2018-08-13T23:14:18.892Z,491.63
2018-08-13T23:17:00.536Z,458.63
2018-08-13T23:19:41.379Z,343.53
2018-08-13T23:22:47.984Z,300.43
2018-08-13T23:25:27.739Z,341.37
2018-08-13T23:28:08.814Z,260.30
2018-08-13T23:30:49.185Z,313.73
2018-08-13T23:33:31.637Z,382.53
2018-08-13T23:36:09.585Z,278.10
2018-08-13T23:38:50.442Z,413.13
2018-08-13T23:41:30.217Z,433.50
2018-08-13T23:44:09.500Z,414.17
2018-08-13T23:46:51.200Z,466.87
2018-08-13T23:49:37.875Z,466.20
2018-08-13T23:52:18.721Z,428.40
2018-08-13T23:54:59.642Z,431.77
2018-08-13T23:57:39.521Z,507.23
